UKDE/OZH METAR and TAF weather

Enter ICAO airport designator
Station Type Date Time Source
UKDE METAR 2019/12/08 07:00 UTC NOAA

UKDE 080700Z VRB01MPS 9999 BKN036 04/03 Q1015 R20L/290364 NOSIG


Station Type Date Time Source
UKDE Decoded METAR 2019/12/08 07:00 UTC NOAA

Zaporizhzhia / Mokraya, Ukraine (UKDE) 47-52-02N 035-18-59E
Dec 08, 2019 - 02:00 AM EST / 2019.12.08 0700 UTC
Wind: Variable at 2 MPH (2 KT):0
Visibility: greater than 7 mile(s):0
Sky conditions: mostly cloudy
Temperature: 39 F (4 C)
Dew Point: 37 F (3 C)
Relative Humidity: 93%
Pressure (altimeter): 29.97 in. Hg (1015 hPa)
ob: UKDE 080700Z VRB01MPS 9999 BKN036 04/03 Q1015 R20L/290364 NOSIG
cycle: 7

Station Type Date Time Source
UKDE TAF 2019/07/25 03:27 UTC NOAA

TAF
AMD TAF
AMD UKDE 250323Z 2503/2515 32003MPS 9999 SCT030 TX28/2512Z TN17/2503Z
TEMPO 2503/2505 1000 BR SCT010 PROB40
TEMPO 2510/2512 VRB10G15MPS 1000 TSRA SQ BKN020CB

Example: see airport list